sensor_id;sensor_type;location;lat;lon;timestamp;pressure;altitude;pressure_sealevel;temperature;humidity
2681;BME280;1350;42.134;24.708;2023-03-18T00:01:38;99989.19;;;6.87;85.67
2681;BME280;1350;42.134;24.708;2023-03-18T00:04:05;99984.59;;;6.92;84.46
2681;BME280;1350;42.134;24.708;2023-03-18T00:06:31;99988.81;;;6.99;84.67
2681;BME280;1350;42.134;24.708;2023-03-18T00:08:58;99986.50;;;6.88;84.23
2681;BME280;1350;42.134;24.708;2023-03-18T00:11:25;99984.72;;;6.89;83.36
2681;BME280;1350;42.134;24.708;2023-03-18T00:13:53;99980.94;;;6.98;81.77
2681;BME280;1350;42.134;24.708;2023-03-18T00:16:20;99986.03;;;7.04;81.66
2681;BME280;1350;42.134;24.708;2023-03-18T00:18:47;99977.88;;;6.83;81.48
2681;BME280;1350;42.134;24.708;2023-03-18T00:21:14;99978.28;;;6.70;83.46
2681;BME280;1350;42.134;24.708;2023-03-18T00:23:41;99979.13;;;6.70;84.46
2681;BME280;1350;42.134;24.708;2023-03-18T00:26:08;99975.34;;;6.80;83.95
2681;BME280;1350;42.134;24.708;2023-03-18T00:28:36;99976.28;;;6.78;85.87
2681;BME280;1350;42.134;24.708;2023-03-18T00:31:06;99975.22;;;6.83;85.40
2681;BME280;1350;42.134;24.708;2023-03-18T00:33:34;99975.19;;;6.85;84.24
2681;BME280;1350;42.134;24.708;2023-03-18T00:36:02;99971.53;;;6.89;84.29
2681;BME280;1350;42.134;24.708;2023-03-18T00:38:30;99962.53;;;6.68;87.04
2681;BME280;1350;42.134;24.708;2023-03-18T00:40:58;99958.66;;;6.80;87.64
2681;BME280;1350;42.134;24.708;2023-03-18T00:43:36;99953.56;;;6.74;88.29
2681;BME280;1350;42.134;24.708;2023-03-18T00:46:12;99957.88;;;6.76;88.98
2681;BME280;1350;42.134;24.708;2023-03-18T00:48:40;99954.63;;;6.68;89.58
2681;BME280;1350;42.134;24.708;2023-03-18T00:51:07;99957.13;;;6.73;89.42
2681;BME280;1350;42.134;24.708;2023-03-18T00:53:38;99957.59;;;6.58;89.40
2681;BME280;1350;42.134;24.708;2023-03-18T00:56:05;99957.84;;;6.49;90.85
2681;BME280;1350;42.134;24.708;2023-03-18T00:58:32;99956.59;;;6.33;91.80
2681;BME280;1350;42.134;24.708;2023-03-18T01:01:01;99953.19;;;6.29;91.16
2681;BME280;1350;42.134;24.708;2023-03-18T01:03:29;99950.06;;;6.15;91.96
2681;BME280;1350;42.134;24.708;2023-03-18T01:05:56;99953.00;;;6.05;91.22
2681;BME280;1350;42.134;24.708;2023-03-18T01:08:23;99951.25;;;6.05;91.54
2681;BME280;1350;42.134;24.708;2023-03-18T01:10:51;99953.38;;;5.93;92.74
2681;BME280;1350;42.134;24.708;2023-03-18T01:13:18;99960.34;;;5.94;93.03
2681;BME280;1350;42.134;24.708;2023-03-18T01:15:45;99960.47;;;5.89;93.66
2681;BME280;1350;42.134;24.708;2023-03-18T01:18:12;99957.00;;;5.89;93.91
2681;BME280;1350;42.134;24.708;2023-03-18T01:20:41;99956.34;;;5.79;95.57
2681;BME280;1350;42.134;24.708;2023-03-18T01:23:09;99945.88;;;5.78;96.26
2681;BME280;1350;42.134;24.708;2023-03-18T01:25:37;99947.66;;;5.76;96.23
2681;BME280;1350;42.134;24.708;2023-03-18T01:28:04;99946.97;;;5.69;96.56
2681;BME280;1350;42.134;24.708;2023-03-18T01:30:31;99944.53;;;5.62;97.85
2681;BME280;1350;42.134;24.708;2023-03-18T01:32:59;99946.06;;;5.70;98.59
2681;BME280;1350;42.134;24.708;2023-03-18T01:35:26;99947.34;;;5.88;97.45
2681;BME280;1350;42.134;24.708;2023-03-18T01:37:55;99946.31;;;5.95;98.19
2681;BME280;1350;42.134;24.708;2023-03-18T01:40:22;99938.66;;;5.86;98.36
2681;BME280;1350;42.134;24.708;2023-03-18T01:42:54;99940.28;;;5.90;98.12
2681;BME280;1350;42.134;24.708;2023-03-18T01:45:24;99939.06;;;6.01;98.35
2681;BME280;1350;42.134;24.708;2023-03-18T01:47:52;99936.66;;;5.94;98.45
2681;BME280;1350;42.134;24.708;2023-03-18T01:50:21;99939.13;;;6.00;97.80
2681;BME280;1350;42.134;24.708;2023-03-18T01:52:53;99928.91;;;5.89;98.15
2681;BME280;1350;42.134;24.708;2023-03-18T01:55:24;99932.63;;;5.81;99.23
2681;BME280;1350;42.134;24.708;2023-03-18T01:57:52;99929.34;;;5.73;99.95
2681;BME280;1350;42.134;24.708;2023-03-18T02:00:20;99926.63;;;5.76;99.80
2681;BME280;1350;42.134;24.708;2023-03-18T02:02:48;99928.13;;;5.86;100.00
2681;BME280;1350;42.134;24.708;2023-03-18T02:05:19;99930.91;;;5.78;100.00
2681;BME280;1350;42.134;24.708;2023-03-18T02:07:46;99923.13;;;5.75;100.00
2681;BME280;1350;42.134;24.708;2023-03-18T02:10:15;99922.09;;;5.81;99.49
2681;BME280;1350;42.134;24.708;2023-03-18T02:12:48;99920.53;;;5.74;99.42
2681;BME280;1350;42.134;24.708;2023-03-18T02:15:19;99922.22;;;5.76;99.12
2681;BME280;1350;42.134;24.708;2023-03-18T02:17:50;99925.41;;;5.89;98.15
2681;BME280;1350;42.134;24.708;2023-03-18T02:20:37;99925.16;;;5.98;97.82
2681;BME280;1350;42.134;24.708;2023-03-18T02:23:10;99921.91;;;5.88;98.41
2681;BME280;1350;42.134;24.708;2023-03-18T02:25:45;99924.41;;;5.93;98.64
2681;BME280;1350;42.134;24.708;2023-03-18T02:28:17;99922.78;;;5.89;98.23
2681;BME280;1350;42.134;24.708;2023-03-18T02:30:47;99930.25;;;6.04;98.20
2681;BME280;1350;42.134;24.708;2023-03-18T02:33:17;99924.72;;;6.13;96.31
2681;BME280;1350;42.134;24.708;2023-03-18T02:35:48;99928.97;;;6.17;96.84
2681;BME280;1350;42.134;24.708;2023-03-18T02:38:16;99923.97;;;6.08;96.37
2681;BME280;1350;42.134;24.708;2023-03-18T02:40:43;99919.53;;;6.10;96.24
2681;BME280;1350;42.134;24.708;2023-03-18T02:43:21;99928.19;;;6.15;96.21
2681;BME280;1350;42.134;24.708;2023-03-18T02:46:03;99927.25;;;6.16;97.31
2681;BME280;1350;42.134;24.708;2023-03-18T02:48:35;99933.44;;;6.15;96.56
2681;BME280;1350;42.134;24.708;2023-03-18T02:51:04;99935.03;;;6.20;96.95
2681;BME280;1350;42.134;24.708;2023-03-18T02:53:32;99931.28;;;6.27;97.18
2681;BME280;1350;42.134;24.708;2023-03-18T02:55:59;99927.00;;;5.94;97.34
2681;BME280;1350;42.134;24.708;2023-03-18T02:58:27;99940.34;;;5.88;99.23
2681;BME280;1350;42.134;24.708;2023-03-18T03:00:54;99933.75;;;6.03;99.25
2681;BME280;1350;42.134;24.708;2023-03-18T03:03:22;99945.03;;;6.08;99.24
2681;BME280;1350;42.134;24.708;2023-03-18T03:05:49;99939.50;;;5.86;99.48
2681;BME280;1350;42.134;24.708;2023-03-18T03:08:15;99932.56;;;5.84;100.00
2681;BME280;1350;42.134;24.708;2023-03-18T03:10:42;99936.84;;;5.88;100.00
2681;BME280;1350;42.134;24.708;2023-03-18T03:13:09;99932.84;;;5.73;100.00
2681;BME280;1350;42.134;24.708;2023-03-18T03:15:38;99931.88;;;5.76;100.00
2681;BME280;1350;42.134;24.708;2023-03-18T03:18:05;99939.78;;;5.76;100.00
2681;BME280;1350;42.134;24.708;2023-03-18T03:20:32;99936.97;;;5.83;100.00
2681;BME280;1350;42.134;24.708;2023-03-18T03:23:02;99934.47;;;5.45;100.00
2681;BME280;1350;42.134;24.708;2023-03-18T03:25:29;99933.56;;;5.46;100.00
2681;BME280;1350;42.134;24.708;2023-03-18T03:27:57;99941.78;;;5.66;100.00
2681;BME280;1350;42.134;24.708;2023-03-18T03:30:24;99942.34;;;5.77;100.00
2681;BME280;1350;42.134;24.708;2023-03-18T03:32:52;99947.41;;;5.86;100.00
2681;BME280;1350;42.134;24.708;2023-03-18T03:35:19;99941.34;;;5.83;100.00
2681;BME280;1350;42.134;24.708;2023-03-18T03:37:46;99941.00;;;5.96;100.00
2681;BME280;1350;42.134;24.708;2023-03-18T03:40:15;99936.53;;;5.98;100.00
2681;BME280;1350;42.134;24.708;2023-03-18T03:42:43;99936.91;;;5.85;100.00
2681;BME280;1350;42.134;24.708;2023-03-18T03:45:11;99947.34;;;5.88;100.00
2681;BME280;1350;42.134;24.708;2023-03-18T03:47:39;99944.47;;;5.97;100.00
2681;BME280;1350;42.134;24.708;2023-03-18T03:50:09;99947.88;;;6.00;100.00
2681;BME280;1350;42.134;24.708;2023-03-18T03:52:36;99946.78;;;6.09;100.00
2681;BME280;1350;42.134;24.708;2023-03-18T03:55:04;99950.25;;;6.09;100.00
2681;BME280;1350;42.134;24.708;2023-03-18T03:57:31;99950.56;;;5.99;100.00
2681;BME280;1350;42.134;24.708;2023-03-18T03:59:58;99950.03;;;5.86;100.00
2681;BME280;1350;42.134;24.708;2023-03-18T04:02:26;99953.09;;;5.70;100.00
2681;BME280;1350;42.134;24.708;2023-03-18T04:04:53;99952.91;;;5.76;100.00
2681;BME280;1350;42.134;24.708;2023-03-18T04:07:21;99954.00;;;5.69;100.00
2681;BME280;1350;42.134;24.708;2023-03-18T04:09:48;99950.66;;;5.62;100.00
2681;BME280;1350;42.134;24.708;2023-03-18T04:12:16;99958.63;;;5.59;100.00
2681;BME280;1350;42.134;24.708;2023-03-18T04:14:44;99955.13;;;5.59;100.00
2681;BME280;1350;42.134;24.708;2023-03-18T04:17:12;99957.78;;;5.59;100.00
2681;BME280;1350;42.134;24.708;2023-03-18T04:19:39;99958.34;;;5.70;100.00
2681;BME280;1350;42.134;24.708;2023-03-18T04:22:06;99952.25;;;5.68;100.00
2681;BME280;1350;42.134;24.708;2023-03-18T04:24:34;99957.56;;;5.66;100.00
2681;BME280;1350;42.134;24.708;2023-03-18T04:27:01;99958.59;;;5.61;100.00
2681;BME280;1350;42.134;24.708;2023-03-18T04:29:27;99960.63;;;5.50;100.00
2681;BME280;1350;42.134;24.708;2023-03-18T04:31:55;99967.94;;;5.39;100.00
2681;BME280;1350;42.134;24.708;2023-03-18T04:34:22;99963.16;;;5.54;100.00
2681;BME280;1350;42.134;24.708;2023-03-18T04:36:49;99966.81;;;5.49;100.00
2681;BME280;1350;42.134;24.708;2023-03-18T04:39:16;99963.28;;;5.50;100.00
2681;BME280;1350;42.134;24.708;2023-03-18T04:41:44;99963.09;;;5.56;99.98
2681;BME280;1350;42.134;24.708;2023-03-18T04:44:11;99973.75;;;5.51;100.00
2681;BME280;1350;42.134;24.708;2023-03-18T04:46:38;99964.50;;;5.70;99.94
2681;BME280;1350;42.134;24.708;2023-03-18T04:49:05;99964.69;;;5.63;99.70
2681;BME280;1350;42.134;24.708;2023-03-18T04:51:33;99971.00;;;5.56;100.00
2681;BME280;1350;42.134;24.708;2023-03-18T04:54:00;99966.44;;;5.62;100.00
2681;BME280;1350;42.134;24.708;2023-03-18T04:56:26;99972.59;;;5.63;100.00
2681;BME280;1350;42.134;24.708;2023-03-18T04:58:54;99967.19;;;5.67;100.00
2681;BME280;1350;42.134;24.708;2023-03-18T05:01:21;99968.16;;;5.63;100.00
2681;BME280;1350;42.134;24.708;2023-03-18T05:03:48;99972.63;;;5.60;100.00
2681;BME280;1350;42.134;24.708;2023-03-18T05:06:21;99966.41;;;5.64;100.00
2681;BME280;1350;42.134;24.708;2023-03-18T05:08:48;99963.31;;;5.48;100.00
2681;BME280;1350;42.134;24.708;2023-03-18T05:11:15;99962.09;;;5.60;100.00
2681;BME280;1350;42.134;24.708;2023-03-18T05:13:42;99969.66;;;5.73;100.00
2681;BME280;1350;42.134;24.708;2023-03-18T05:16:10;99979.00;;;5.85;100.00
2681;BME280;1350;42.134;24.708;2023-03-18T05:18:38;99973.19;;;5.72;100.00
2681;BME280;1350;42.134;24.708;2023-03-18T05:21:05;99969.72;;;5.72;100.00
2681;BME280;1350;42.134;24.708;2023-03-18T05:23:33;99969.88;;;5.66;100.00
2681;BME280;1350;42.134;24.708;2023-03-18T05:26:00;99971.75;;;5.61;100.00
2681;BME280;1350;42.134;24.708;2023-03-18T05:28:26;99968.97;;;5.67;100.00
2681;BME280;1350;42.134;24.708;2023-03-18T05:30:53;99964.66;;;5.64;100.00
2681;BME280;1350;42.134;24.708;2023-03-18T05:33:21;99979.81;;;5.55;99.32
2681;BME280;1350;42.134;24.708;2023-03-18T05:35:48;99988.59;;;5.52;100.00
2681;BME280;1350;42.134;24.708;2023-03-18T05:38:15;99985.13;;;5.52;99.65
2681;BME280;1350;42.134;24.708;2023-03-18T05:40:42;99983.16;;;5.60;99.81
2681;BME280;1350;42.134;24.708;2023-03-18T05:43:09;99981.94;;;5.73;100.00
2681;BME280;1350;42.134;24.708;2023-03-18T05:45:35;99997.84;;;5.68;99.65
2681;BME280;1350;42.134;24.708;2023-03-18T05:48:03;99993.31;;;5.75;98.99
2681;BME280;1350;42.134;24.708;2023-03-18T05:50:33;99987.00;;;5.80;98.32
2681;BME280;1350;42.134;24.708;2023-03-18T05:53:01;99981.81;;;5.77;97.79
2681;BME280;1350;42.134;24.708;2023-03-18T05:55:29;99989.19;;;5.63;98.20
2681;BME280;1350;42.134;24.708;2023-03-18T05:57:56;99995.94;;;5.75;98.12
2681;BME280;1350;42.134;24.708;2023-03-18T06:00:23;100003.00;;;5.73;98.04
2681;BME280;1350;42.134;24.708;2023-03-18T06:02:50;99998.00;;;5.62;97.52
2681;BME280;1350;42.134;24.708;2023-03-18T06:05:18;99999.88;;;5.57;97.48
2681;BME280;1350;42.134;24.708;2023-03-18T06:07:48;100000.53;;;5.67;97.58
2681;BME280;1350;42.134;24.708;2023-03-18T06:10:15;99995.19;;;5.70;97.58
2681;BME280;1350;42.134;24.708;2023-03-18T06:12:42;99992.22;;;5.83;97.08
2681;BME280;1350;42.134;24.708;2023-03-18T06:15:11;99992.78;;;5.94;96.13
2681;BME280;1350;42.134;24.708;2023-03-18T06:17:38;99995.38;;;5.96;96.84
2681;BME280;1350;42.134;24.708;2023-03-18T06:20:08;99997.31;;;5.89;96.17
2681;BME280;1350;42.134;24.708;2023-03-18T06:22:36;99997.25;;;5.91;95.80
2681;BME280;1350;42.134;24.708;2023-03-18T06:25:05;99989.03;;;6.03;95.89
2681;BME280;1350;42.134;24.708;2023-03-18T06:27:32;99987.72;;;6.19;96.18
2681;BME280;1350;42.134;24.708;2023-03-18T06:29:59;99992.94;;;6.20;95.60
2681;BME280;1350;42.134;24.708;2023-03-18T06:32:28;99986.22;;;6.10;95.96
2681;BME280;1350;42.134;24.708;2023-03-18T06:34:55;99990.78;;;6.04;95.30
2681;BME280;1350;42.134;24.708;2023-03-18T06:37:23;99986.72;;;6.23;95.64
2681;BME280;1350;42.134;24.708;2023-03-18T06:39:50;99986.47;;;6.32;93.49
2681;BME280;1350;42.134;24.708;2023-03-18T06:42:18;99982.78;;;6.37;93.44
2681;BME280;1350;42.134;24.708;2023-03-18T06:44:45;99989.72;;;6.40;93.32
2681;BME280;1350;42.134;24.708;2023-03-18T06:47:16;99983.47;;;6.44;91.00
2681;BME280;1350;42.134;24.708;2023-03-18T06:49:42;99979.38;;;6.63;89.84
2681;BME280;1350;42.134;24.708;2023-03-18T06:52:09;99980.66;;;6.79;89.12
2681;BME280;1350;42.134;24.708;2023-03-18T06:54:37;99981.22;;;6.88;87.32
2681;BME280;1350;42.134;24.708;2023-03-18T06:57:04;99981.66;;;7.03;85.67
2681;BME280;1350;42.134;24.708;2023-03-18T06:59:33;99977.25;;;7.29;85.99
2681;BME280;1350;42.134;24.708;2023-03-18T07:02:00;99977.91;;;7.62;82.36
2681;BME280;1350;42.134;24.708;2023-03-18T07:04:27;99962.91;;;8.13;81.94
2681;BME280;1350;42.134;24.708;2023-03-18T07:06:55;99968.72;;;9.13;78.02
2681;BME280;1350;42.134;24.708;2023-03-18T07:09:22;99961.81;;;10.12;72.04
2681;BME280;1350;42.134;24.708;2023-03-18T07:11:49;99961.44;;;10.59;68.29
2681;BME280;1350;42.134;24.708;2023-03-18T07:14:16;99968.75;;;11.09;64.09
2681;BME280;1350;42.134;24.708;2023-03-18T07:16:44;99962.41;;;11.12;63.63
2681;BME280;1350;42.134;24.708;2023-03-18T07:19:11;99970.06;;;11.01;63.22
2681;BME280;1350;42.134;24.708;2023-03-18T07:21:38;99969.69;;;10.71;62.74
2681;BME280;1350;42.134;24.708;2023-03-18T07:24:05;99976.41;;;10.60;62.85
2681;BME280;1350;42.134;24.708;2023-03-18T07:26:32;99970.69;;;10.69;62.80
2681;BME280;1350;42.134;24.708;2023-03-18T07:29:00;99970.69;;;10.69;62.31
2681;BME280;1350;42.134;24.708;2023-03-18T07:31:27;99969.56;;;10.56;63.13
2681;BME280;1350;42.134;24.708;2023-03-18T07:33:56;99963.03;;;10.24;63.79
2681;BME280;1350;42.134;24.708;2023-03-18T07:36:23;99951.47;;;10.06;64.58
2681;BME280;1350;42.134;24.708;2023-03-18T07:38:51;99954.25;;;10.03;65.50
2681;BME280;1350;42.134;24.708;2023-03-18T07:41:18;99954.09;;;10.06;65.20
2681;BME280;1350;42.134;24.708;2023-03-18T07:43:44;99951.66;;;9.82;66.14
2681;BME280;1350;42.134;24.708;2023-03-18T07:46:11;99952.00;;;9.74;66.05
2681;BME280;1350;42.134;24.708;2023-03-18T07:48:38;99965.28;;;9.53;67.13
2681;BME280;1350;42.134;24.708;2023-03-18T07:51:06;99951.84;;;9.57;67.43
2681;BME280;1350;42.134;24.708;2023-03-18T07:53:33;99964.22;;;9.57;67.77
2681;BME280;1350;42.134;24.708;2023-03-18T07:56:00;99957.38;;;9.73;67.24
2681;BME280;1350;42.134;24.708;2023-03-18T07:58:27;99959.72;;;9.59;67.01
2681;BME280;1350;42.134;24.708;2023-03-18T08:00:54;99955.03;;;9.45;67.03
2681;BME280;1350;42.134;24.708;2023-03-18T08:03:22;99956.00;;;9.43;67.89
2681;BME280;1350;42.134;24.708;2023-03-18T08:05:48;99961.84;;;9.51;67.25
2681;BME280;1350;42.134;24.708;2023-03-18T08:08:17;99965.47;;;9.48;68.33
2681;BME280;1350;42.134;24.708;2023-03-18T08:10:44;99963.94;;;9.21;68.02
2681;BME280;1350;42.134;24.708;2023-03-18T08:13:16;99969.19;;;9.23;69.10
2681;BME280;1350;42.134;24.708;2023-03-18T08:15:44;99968.72;;;9.33;68.57
2681;BME280;1350;42.134;24.708;2023-03-18T08:18:11;99976.03;;;9.28;68.36
2681;BME280;1350;42.134;24.708;2023-03-18T08:20:38;99977.88;;;9.05;68.23
2681;BME280;1350;42.134;24.708;2023-03-18T08:23:05;99985.03;;;9.01;68.38
2681;BME280;1350;42.134;24.708;2023-03-18T08:25:33;99983.41;;;8.99;67.78
2681;BME280;1350;42.134;24.708;2023-03-18T08:28:00;99989.00;;;8.91;68.30
2681;BME280;1350;42.134;24.708;2023-03-18T08:30:27;99990.50;;;8.75;68.57
2681;BME280;1350;42.134;24.708;2023-03-18T08:32:54;99986.16;;;8.96;68.62
2681;BME280;1350;42.134;24.708;2023-03-18T08:35:22;99978.72;;;9.05;67.28
2681;BME280;1350;42.134;24.708;2023-03-18T08:37:48;99989.69;;;8.96;67.29
2681;BME280;1350;42.134;24.708;2023-03-18T08:40:16;99983.47;;;9.19;66.99
2681;BME280;1350;42.134;24.708;2023-03-18T08:42:46;99984.28;;;8.99;66.64
2681;BME280;1350;42.134;24.708;2023-03-18T08:45:13;99986.03;;;8.99;67.00
2681;BME280;1350;42.134;24.708;2023-03-18T08:47:40;99977.75;;;9.08;67.45
2681;BME280;1350;42.134;24.708;2023-03-18T08:50:08;99976.16;;;9.04;68.31
2681;BME280;1350;42.134;24.708;2023-03-18T08:52:35;99983.91;;;9.30;67.08
2681;BME280;1350;42.134;24.708;2023-03-18T08:55:04;99978.75;;;9.68;65.96
2681;BME280;1350;42.134;24.708;2023-03-18T08:57:31;99987.53;;;9.69;65.51
2681;BME280;1350;42.134;24.708;2023-03-18T09:00:00;99991.25;;;9.65;65.34
2681;BME280;1350;42.134;24.708;2023-03-18T09:02:27;99990.59;;;9.80;64.67
2681;BME280;1350;42.134;24.708;2023-03-18T09:04:54;99988.34;;;9.71;64.92
2681;BME280;1350;42.134;24.708;2023-03-18T09:07:20;99993.09;;;9.41;65.05
2681;BME280;1350;42.134;24.708;2023-03-18T09:09:47;99995.31;;;9.30;66.58
2681;BME280;1350;42.134;24.708;2023-03-18T09:12:15;99999.00;;;9.48;66.27
2681;BME280;1350;42.134;24.708;2023-03-18T09:14:42;100002.16;;;9.36;66.31
2681;BME280;1350;42.134;24.708;2023-03-18T09:17:11;100000.81;;;9.26;65.79
2681;BME280;1350;42.134;24.708;2023-03-18T09:19:38;100004.19;;;9.29;65.07
2681;BME280;1350;42.134;24.708;2023-03-18T09:22:06;100006.97;;;9.48;64.69
2681;BME280;1350;42.134;24.708;2023-03-18T09:24:33;100008.78;;;9.46;65.21
2681;BME280;1350;42.134;24.708;2023-03-18T09:27:22;100006.72;;;9.32;65.00
2681;BME280;1350;42.134;24.708;2023-03-18T09:29:49;100003.94;;;9.35;64.89
2681;BME280;1350;42.134;24.708;2023-03-18T09:32:17;100004.22;;;9.71;64.70
2681;BME280;1350;42.134;24.708;2023-03-18T09:34:44;100001.47;;;9.52;64.71
2681;BME280;1350;42.134;24.708;2023-03-18T09:37:11;100006.13;;;9.67;64.71
2681;BME280;1350;42.134;24.708;2023-03-18T09:39:39;100000.41;;;9.36;64.81
2681;BME280;1350;42.134;24.708;2023-03-18T09:42:23;99997.38;;;9.45;63.93
2681;BME280;1350;42.134;24.708;2023-03-18T09:44:56;100010.09;;;9.36;63.33
2681;BME280;1350;42.134;24.708;2023-03-18T09:48:03;100022.22;;;9.20;61.44
2681;BME280;1350;42.134;24.708;2023-03-18T09:50:38;100019.59;;;8.97;61.46
2681;BME280;1350;42.134;24.708;2023-03-18T09:53:15;100023.31;;;8.93;61.64
2681;BME280;1350;42.134;24.708;2023-03-18T09:55:46;100028.44;;;9.19;61.92
2681;BME280;1350;42.134;24.708;2023-03-18T09:58:20;100026.66;;;9.19;61.81
2681;BME280;1350;42.134;24.708;2023-03-18T10:00:52;100031.63;;;9.05;61.24
2681;BME280;1350;42.134;24.708;2023-03-18T10:03:30;100034.00;;;8.90;61.73
2681;BME280;1350;42.134;24.708;2023-03-18T10:06:02;100034.75;;;8.70;62.46
2681;BME280;1350;42.134;24.708;2023-03-18T10:08:48;100039.13;;;8.71;61.47
2681;BME280;1350;42.134;24.708;2023-03-18T10:11:21;100041.41;;;8.57;61.59
2681;BME280;1350;42.134;24.708;2023-03-18T10:13:56;100041.19;;;8.63;62.40
2681;BME280;1350;42.134;24.708;2023-03-18T10:16:27;100045.94;;;8.53;62.54
2681;BME280;1350;42.134;24.708;2023-03-18T10:18:58;100044.94;;;8.33;62.19
2681;BME280;1350;42.134;24.708;2023-03-18T10:21:34;100044.09;;;8.06;62.87
2681;BME280;1350;42.134;24.708;2023-03-18T10:24:16;100044.81;;;8.11;63.49
2681;BME280;1350;42.134;24.708;2023-03-18T10:26:47;100042.16;;;8.37;62.82
2681;BME280;1350;42.134;24.708;2023-03-18T10:29:26;100049.41;;;8.55;63.12
2681;BME280;1350;42.134;24.708;2023-03-18T10:32:03;100049.34;;;8.80;63.26
2681;BME280;1350;42.134;24.708;2023-03-18T10:34:39;100053.19;;;8.48;64.19
2681;BME280;1350;42.134;24.708;2023-03-18T10:37:17;100054.31;;;8.41;64.82
2681;BME280;1350;42.134;24.708;2023-03-18T10:39:45;100055.69;;;8.28;64.88
2681;BME280;1350;42.134;24.708;2023-03-18T10:42:19;100045.16;;;8.75;63.90
2681;BME280;1350;42.134;24.708;2023-03-18T10:44:46;100045.09;;;8.99;63.39
2681;BME280;1350;42.134;24.708;2023-03-18T10:47:17;100042.81;;;9.33;59.59
2681;BME280;1350;42.134;24.708;2023-03-18T10:49:58;100038.81;;;9.66;60.10
2681;BME280;1350;42.134;24.708;2023-03-18T10:52:33;100034.59;;;9.41;58.33
2681;BME280;1350;42.134;24.708;2023-03-18T10:55:11;100038.16;;;9.40;58.37
2681;BME280;1350;42.134;24.708;2023-03-18T10:57:40;100047.59;;;9.25;61.26
2681;BME280;1350;42.134;24.708;2023-03-18T11:00:24;100041.81;;;9.37;58.54
2681;BME280;1350;42.134;24.708;2023-03-18T11:02:52;100036.88;;;9.91;56.95
2681;BME280;1350;42.134;24.708;2023-03-18T11:05:24;100031.44;;;10.16;55.22
2681;BME280;1350;42.134;24.708;2023-03-18T11:07:56;100044.25;;;10.05;54.43
2681;BME280;1350;42.134;24.708;2023-03-18T11:10:25;100032.22;;;9.76;55.01
2681;BME280;1350;42.134;24.708;2023-03-18T11:12:56;100032.78;;;9.63;55.89
2681;BME280;1350;42.134;24.708;2023-03-18T11:15:24;100032.69;;;9.86;55.34
2681;BME280;1350;42.134;24.708;2023-03-18T11:17:51;100019.75;;;9.58;56.37
2681;BME280;1350;42.134;24.708;2023-03-18T11:20:31;100027.53;;;9.83;56.86
2681;BME280;1350;42.134;24.708;2023-03-18T11:23:14;100023.69;;;10.11;56.10
2681;BME280;1350;42.134;24.708;2023-03-18T11:25:44;100030.66;;;9.92;55.75
2681;BME280;1350;42.134;24.708;2023-03-18T11:28:19;100016.34;;;9.96;57.02
2681;BME280;1350;42.134;24.708;2023-03-18T11:30:51;100015.94;;;10.07;56.56
2681;BME280;1350;42.134;24.708;2023-03-18T11:33:23;100020.97;;;10.33;55.88
2681;BME280;1350;42.134;24.708;2023-03-18T11:35:53;100026.69;;;9.82;57.31
2681;BME280;1350;42.134;24.708;2023-03-18T11:38:24;100025.19;;;9.75;58.09
2681;BME280;1350;42.134;24.708;2023-03-18T11:40:53;100025.91;;;9.59;58.99
2681;BME280;1350;42.134;24.708;2023-03-18T11:43:30;100017.47;;;9.71;58.74
2681;BME280;1350;42.134;24.708;2023-03-18T11:45:59;100011.78;;;9.80;58.93
2681;BME280;1350;42.134;24.708;2023-03-18T11:48:31;100016.72;;;9.67;58.47
2681;BME280;1350;42.134;24.708;2023-03-18T11:51:37;100013.00;;;9.51;58.85
2681;BME280;1350;42.134;24.708;2023-03-18T11:57:17;100010.50;;;9.68;58.52
2681;BME280;1350;42.134;24.708;2023-03-18T11:59:59;100007.88;;;9.88;58.80
2681;BME280;1350;42.134;24.708;2023-03-18T12:05:37;100002.78;;;10.04;58.25
2681;BME280;1350;42.134;24.708;2023-03-18T12:08:12;100009.88;;;10.44;58.46
2681;BME280;1350;42.134;24.708;2023-03-18T12:10:44;99996.66;;;10.62;57.66
2681;BME280;1350;42.134;24.708;2023-03-18T12:13:33;99997.06;;;10.53;56.77
2681;BME280;1350;42.134;24.708;2023-03-18T12:16:12;99999.75;;;10.33;57.03
2681;BME280;1350;42.134;24.708;2023-03-18T12:18:52;99997.72;;;10.77;57.11
2681;BME280;1350;42.134;24.708;2023-03-18T12:21:33;99992.19;;;11.18;55.58
2681;BME280;1350;42.134;24.708;2023-03-18T12:24:19;99997.38;;;11.38;54.44
2681;BME280;1350;42.134;24.708;2023-03-18T12:26:55;99996.97;;;11.29;54.25
2681;BME280;1350;42.134;24.708;2023-03-18T12:29:40;99994.53;;;11.60;53.55
2681;BME280;1350;42.134;24.708;2023-03-18T12:32:23;99994.34;;;11.81;53.24
2681;BME280;1350;42.134;24.708;2023-03-18T12:35:01;99997.72;;;12.02;52.33
2681;BME280;1350;42.134;24.708;2023-03-18T12:37:42;99992.63;;;12.15;50.95
2681;BME280;1350;42.134;24.708;2023-03-18T12:40:25;99992.97;;;12.41;51.24
2681;BME280;1350;42.134;24.708;2023-03-18T12:43:03;99990.81;;;12.80;50.57
2681;BME280;1350;42.134;24.708;2023-03-18T12:45:34;99986.66;;;12.59;50.80
2681;BME280;1350;42.134;24.708;2023-03-18T12:48:07;99977.06;;;12.72;50.13
2681;BME280;1350;42.134;24.708;2023-03-18T12:50:38;99974.88;;;12.96;49.87
2681;BME280;1350;42.134;24.708;2023-03-18T12:53:13;99973.94;;;13.12;49.20
2681;BME280;1350;42.134;24.708;2023-03-18T12:55:45;99965.03;;;13.58;48.98
2681;BME280;1350;42.134;24.708;2023-03-18T12:58:16;99958.06;;;13.86;47.96
2681;BME280;1350;42.134;24.708;2023-03-18T13:00:48;99953.88;;;13.82;47.38
2681;BME280;1350;42.134;24.708;2023-03-18T13:03:27;99952.84;;;13.84;47.23
2681;BME280;1350;42.134;24.708;2023-03-18T13:06:00;99943.34;;;13.94;46.37
2681;BME280;1350;42.134;24.708;2023-03-18T13:08:50;99943.63;;;13.60;47.00
2681;BME280;1350;42.134;24.708;2023-03-18T13:11:35;99943.47;;;13.63;46.79
2681;BME280;1350;42.134;24.708;2023-03-18T13:14:13;99943.53;;;13.01;48.17
2681;BME280;1350;42.134;24.708;2023-03-18T13:16:45;99945.81;;;13.08;47.84
2681;BME280;1350;42.134;24.708;2023-03-18T13:19:12;99937.88;;;13.07;48.01
2681;BME280;1350;42.134;24.708;2023-03-18T13:21:42;99942.06;;;12.80;47.68
2681;BME280;1350;42.134;24.708;2023-03-18T13:24:28;99942.78;;;12.51;48.58
2681;BME280;1350;42.134;24.708;2023-03-18T13:27:24;99933.78;;;12.53;48.16
2681;BME280;1350;42.134;24.708;2023-03-18T13:30:00;99932.78;;;12.56;48.31
2681;BME280;1350;42.134;24.708;2023-03-18T13:32:51;99930.66;;;12.62;48.70
2681;BME280;1350;42.134;24.708;2023-03-18T13:35:44;99929.53;;;12.66;47.57
2681;BME280;1350;42.134;24.708;2023-03-18T13:38:26;99931.81;;;12.57;47.77